Time;durP1;ratioP1;P1;durP2;ratioP2;P2;SDS_P1;SDS_P2;PMS_P1;PMS_P2;Temp;Humidity;BMP_temperature;BMP_pressure;BME280_temperature;BME280_humidity;BME280_pressure;Samples;Min_cycle;Max_cycle;Signal;HPM_P1;HPM_P2
2021/07/21 00:00:28;;;;;;;12.73;6.72;;;13.30;99.90;;;;;;6304856;22;20023;-78
2021/07/21 00:02:57;;;;;;;13.77;7.78;;;13.40;99.90;;;;;;6311854;22;20022;-78
2021/07/21 00:05:26;;;;;;;9.05;6.30;;;13.40;99.90;;;;;;6263462;22;20023;-77
2021/07/21 00:07:58;;;;;;;11.15;7.20;;;13.40;99.90;;;;;;6308180;22;20023;-77
2021/07/21 00:10:27;;;;;;;9.85;6.30;;;13.40;99.90;;;;;;6276338;22;20465;-77
2021/07/21 00:16:12;;;;;;;18.48;7.22;;;13.30;99.90;;;;;;6307753;22;20027;-76
2021/07/21 00:21:14;;;;;;;11.98;7.50;;;13.20;99.90;;;;;;6315656;22;20034;-76
2021/07/21 00:23:42;;;;;;;8.88;6.25;;;13.20;99.90;;;;;;6308340;22;20323;-77
2021/07/21 00:26:15;;;;;;;12.85;6.85;;;13.20;99.90;;;;;;6314373;22;20030;-79
2021/07/21 00:28:43;;;;;;;13.25;8.18;;;13.20;99.90;;;;;;6276985;22;20046;-78
2021/07/21 00:31:16;;;;;;;9.77;6.20;;;13.20;99.90;;;;;;6282500;22;20027;-78
2021/07/21 00:33:47;;;;;;;9.88;6.78;;;13.20;99.90;;;;;;6315510;22;20342;-78
2021/07/21 00:36:15;;;;;;;;;;;13.10;99.90;;;;;;6278317;22;20026;-78
2021/07/21 00:38:43;;;;;;;9.93;7.38;;;13.10;99.90;;;;;;6285537;22;19922;-78
2021/07/21 00:41:15;;;;;;;13.27;7.50;;;13.00;99.90;;;;;;6314978;22;20755;-78
2021/07/21 00:43:43;;;;;;;11.48;7.05;;;13.00;99.90;;;;;;6308448;22;20030;-78
2021/07/21 00:46:11;;;;;;;12.63;7.90;;;13.00;99.90;;;;;;6287325;22;20011;-78
2021/07/21 00:48:39;;;;;;;13.27;8.60;;;13.00;99.90;;;;;;6303797;22;20470;-78
2021/07/21 00:51:06;;;;;;;10.25;7.03;;;13.00;99.90;;;;;;6283194;22;20034;-78
2021/07/21 00:53:35;;;;;;;15.50;7.80;;;13.00;99.90;;;;;;6315874;22;20018;-78
2021/07/21 00:56:05;;;;;;;11.95;6.82;;;13.00;99.90;;;;;;6279529;22;20027;-78
2021/07/21 00:58:33;;;;;;;12.13;8.98;;;13.00;99.90;;;;;;6286679;22;20024;-78
2021/07/21 01:01:01;;;;;;;16.83;7.40;;;13.00;99.90;;;;;;6250241;22;20019;-78
2021/07/21 01:03:31;;;;;;;13.50;8.82;;;13.00;99.90;;;;;;6251263;22;20015;-78
2021/07/21 01:06:00;;;;;;;11.85;6.60;;;13.00;99.90;;;;;;6251887;22;20018;-78
2021/07/21 01:08:29;;;;;;;13.20;7.35;;;12.90;99.90;;;;;;6305117;22;20022;-78
2021/07/21 01:11:27;;;;;;;11.48;7.55;;;13.00;99.90;;;;;;6282194;22;20015;-78
2021/07/21 01:14:13;;;;;;;11.70;7.35;;;12.90;99.90;;;;;;6314758;22;20461;-78
2021/07/21 01:16:50;;;;;;;12.02;7.13;;;12.90;99.90;;;;;;6302943;22;20030;-78
2021/07/21 01:19:44;;;;;;;12.70;8.40;;;12.80;99.90;;;;;;6309869;22;20023;-78
2021/07/21 01:22:18;;;;;;;18.65;9.20;;;12.80;99.90;;;;;;6286871;22;20427;-79
2021/07/21 01:25:07;;;;;;;14.88;7.22;;;12.70;99.90;;;;;;6315688;22;20015;-78
2021/07/21 01:27:56;;;;;;;14.85;7.68;;;12.70;99.90;;;;;;6277332;22;20058;-78
2021/07/21 01:30:30;;;;;;;17.73;7.50;;;12.80;99.90;;;;;;6260292;22;20012;-78
2021/07/21 01:33:07;;;;;;;12.45;8.32;;;12.80;99.90;;;;;;6277313;22;20089;-77
2021/07/21 01:35:44;;;;;;;10.38;7.00;;;12.70;99.90;;;;;;6276689;22;20054;-77
2021/07/21 01:38:18;;;;;;;12.07;6.20;;;12.70;99.90;;;;;;6315296;22;20026;-78
2021/07/21 01:40:55;;;;;;;10.45;7.18;;;12.80;99.90;;;;;;6314814;22;20442;-78
2021/07/21 01:43:30;;;;;;;12.65;6.55;;;12.70;99.90;;;;;;6309595;22;20030;-78
2021/07/21 01:46:02;;;;;;;9.50;6.13;;;12.70;99.90;;;;;;6287361;22;20019;-78
2021/07/21 01:48:32;;;;;;;;;;;12.70;99.90;;;;;;6278227;22;20027;-78
2021/07/21 01:51:02;;;;;;;12.68;10.05;;;12.70;99.90;;;;;;6311159;22;19921;-79
2021/07/21 01:53:33;;;;;;;12.50;7.78;;;12.70;99.90;;;;;;6288083;22;20050;-79
2021/07/21 01:56:09;;;;;;;10.95;6.78;;;12.60;99.90;;;;;;6253731;22;20020;-79
2021/07/21 01:58:38;;;;;;;11.38;8.00;;;12.60;99.90;;;;;;6313225;22;20030;-79
2021/07/21 02:01:14;;;;;;;14.50;7.38;;;12.60;99.90;;;;;;6251725;22;20023;-79
2021/07/21 02:03:45;;;;;;;36.33;9.00;;;12.60;99.90;;;;;;6281020;22;20027;-79
2021/07/21 02:06:22;;;;;;;8.02;5.93;;;12.60;99.90;;;;;;6287176;22;20462;-79
2021/07/21 02:08:55;;;;;;;11.85;7.97;;;12.50;99.90;;;;;;6315997;22;20007;-79
2021/07/21 02:11:27;;;;;;;13.18;8.18;;;12.50;99.90;;;;;;6309323;22;20019;-79
2021/07/21 02:13:58;;;;;;;13.10;7.27;;;12.40;99.90;;;;;;6288156;22;20015;-79
2021/07/21 02:16:51;;;;;;;11.07;6.55;;;12.40;99.90;;;;;;6226303;22;20030;-79
2021/07/21 02:19:29;;;;;;;13.57;8.57;;;12.30;99.90;;;;;;6277088;22;20023;-79
2021/07/21 02:22:18;;;;;;;11.85;7.85;;;12.30;99.90;;;;;;6314727;22;20015;-79
2021/07/21 02:25:13;;;;;;;13.25;8.48;;;12.20;99.90;;;;;;6299596;22;20023;-79
2021/07/21 02:27:45;;;;;;;15.48;8.10;;;12.20;99.90;;;;;;6281109;22;20485;-79
2021/07/21 02:30:15;;;;;;;14.60;7.53;;;12.20;99.90;;;;;;6286781;22;20011;-79
2021/07/21 02:32:50;;;;;;;12.02;6.45;;;12.20;99.90;;;;;;6277044;22;20019;-79
2021/07/21 02:35:21;;;;;;;14.82;9.75;;;12.30;99.90;;;;;;6249941;22;20022;-79
2021/07/21 02:37:50;;;;;;;16.70;8.45;;;12.20;99.90;;;;;;6288611;22;20308;-79
2021/07/21 02:40:18;;;;;;;14.25;9.80;;;12.20;99.90;;;;;;6277876;22;20026;-79
2021/07/21 02:42:54;;;;;;;16.20;8.60;;;12.20;99.90;;;;;;6284150;22;20012;-79
2021/07/21 02:45:23;;;;;;;15.20;7.63;;;12.20;99.90;;;;;;6314653;22;20015;-79
2021/07/21 02:47:53;;;;;;;11.10;8.57;;;12.20;99.90;;;;;;6255194;22;20335;-79
2021/07/21 02:50:20;;;;;;;12.93;8.20;;;12.20;99.90;;;;;;6314096;22;20011;-80
2021/07/21 02:53:16;;;;;;;15.65;7.32;;;12.20;99.90;;;;;;6287937;22;20011;-78
2021/07/21 02:56:11;;;;;;;13.10;7.93;;;12.30;99.90;;;;;;6304059;22;20069;-78
2021/07/21 02:59:00;;;;;;;17.00;8.20;;;12.20;99.90;;;;;;6251601;22;20022;-78
2021/07/21 03:01:34;;;;;;;15.35;7.80;;;12.20;99.90;;;;;;6289529;22;20011;-78
2021/07/21 03:04:03;;;;;;;12.52;9.32;;;12.10;99.90;;;;;;6281542;22;20458;-78
2021/07/21 03:06:36;;;;;;;11.27;8.98;;;12.10;99.90;;;;;;6287775;22;20027;-78
2021/07/21 03:09:09;;;;;;;9.95;6.32;;;12.10;99.90;;;;;;6289899;22;20438;-78
2021/07/21 03:11:58;;;;;;;12.57;7.47;;;12.00;99.90;;;;;;6308703;22;20026;-78
2021/07/21 03:14:26;;;;;;;15.35;8.15;;;11.90;99.90;;;;;;6302246;22;20015;-78
2021/07/21 03:17:01;;;;;;;16.48;9.23;;;11.90;99.90;;;;;;6289578;22;20014;-78
2021/07/21 03:19:48;;;;;;;17.55;8.77;;;11.80;99.90;;;;;;6310010;22;20023;-78
2021/07/21 03:22:23;;;;;;;16.33;8.38;;;11.80;99.90;;;;;;6264687;22;20030;-78
2021/07/21 03:25:07;;;;;;;16.25;7.90;;;11.80;99.90;;;;;;6316733;22;20015;-78
2021/07/21 03:27:49;;;;;;;10.10;7.18;;;11.70;99.90;;;;;;6230380;22;20462;-78
2021/07/21 03:30:29;;;;;;;14.13;8.60;;;11.70;99.90;;;;;;6289460;22;20011;-78
2021/07/21 03:33:07;;;;;;;20.85;8.48;;;11.70;99.90;;;;;;6289134;22;20011;-78
2021/07/21 03:35:41;;;;;;;11.43;7.43;;;11.70;99.90;;;;;;6309493;22;20027;-78
2021/07/21 03:38:11;;;;;;;11.25;7.50;;;11.60;99.90;;;;;;6288926;22;20007;-78
2021/07/21 03:40:46;;;;;;;11.70;6.85;;;11.50;99.90;;;;;;6289112;22;20011;-78
2021/07/21 03:43:22;;;;;;;12.43;8.18;;;11.50;99.90;;;;;;6251907;22;20019;-78
2021/07/21 03:46:00;;;;;;;12.10;7.60;;;11.50;99.90;;;;;;6288593;22;20012;-78
2021/07/21 03:48:31;;;;;;;11.93;8.60;;;11.50;99.90;;;;;;6306076;22;20030;-77
2021/07/21 03:51:13;;;;;;;15.32;8.88;;;11.60;99.90;;;;;;6287441;22;20027;-77
2021/07/21 03:54:02;;;;;;;15.05;9.52;;;11.60;99.90;;;;;;6316831;22;20430;-78
2021/07/21 03:56:32;;;;;;;13.60;8.55;;;11.70;99.90;;;;;;6278092;22;20477;-78
2021/07/21 03:59:06;;;;;;;15.30;8.73;;;11.70;99.90;;;;;;6284921;22;20450;-78
2021/07/21 04:01:40;;;;;;;15.43;9.15;;;11.70;99.90;;;;;;6315998;22;20029;-77
2021/07/21 04:04:13;;;;;;;14.02;8.48;;;11.80;99.90;;;;;;6307504;22;20031;-78
2021/07/21 04:06:41;;;;;;;19.00;11.18;;;11.80;99.90;;;;;;6313398;22;20042;-78
2021/07/21 04:09:22;;;;;;;10.02;7.80;;;11.70;99.90;;;;;;6316535;22;20038;-78
2021/07/21 04:11:55;;;;;;;12.40;7.57;;;11.80;99.90;;;;;;6255942;22;20022;-78
2021/07/21 04:14:35;;;;;;;14.18;9.50;;;11.70;99.90;;;;;;6286626;22;20450;-77
2021/07/21 04:17:19;;;;;;;20.98;8.07;;;11.70;99.90;;;;;;6252417;22;20007;-78
2021/07/21 04:19:48;;;;;;;16.83;8.50;;;11.70;99.90;;;;;;6281758;22;20027;-78
2021/07/21 04:22:21;;;;;;;16.88;10.60;;;11.80;99.90;;;;;;6263171;22;20019;-78
2021/07/21 04:24:53;;;;;;;15.10;8.30;;;11.90;99.90;;;;;;6264862;22;20018;-78
2021/07/21 04:27:22;;;;;;;14.38;10.15;;;11.90;99.90;;;;;;6283737;22;20342;-78
2021/07/21 04:30:13;;;;;;;10.98;6.60;;;12.00;99.90;;;;;;6287724;22;20026;-77
2021/07/21 04:32:44;;;;;;;11.05;7.07;;;12.00;99.90;;;;;;6316499;22;20022;-78
2021/07/21 04:35:19;;;;;;;16.58;8.13;;;12.00;99.90;;;;;;6310849;22;20019;-78
2021/07/21 04:37:56;;;;;;;10.23;6.28;;;12.10;99.90;;;;;;6288882;22;20011;-76
2021/07/21 04:40:35;;;;;;;15.77;8.93;;;12.10;99.90;;;;;;6278010;22;20030;-76
2021/07/21 04:43:22;;;;;;;13.75;9.73;;;12.20;99.90;;;;;;6304189;22;20019;-77
2021/07/21 04:45:51;;;;;;;14.35;8.50;;;12.30;99.90;;;;;;6315737;22;20011;-76
2021/07/21 04:48:21;;;;;;;14.63;8.77;;;12.40;99.90;;;;;;6306188;22;20038;-78
2021/07/21 04:50:56;;;;;;;11.95;8.07;;;12.50;99.90;;;;;;6284494;22;20788;-76
2021/07/21 04:53:24;;;;;;;17.27;8.20;;;12.70;99.90;;;;;;6315623;22;20019;-76
2021/07/21 04:55:53;;;;;;;8.90;7.90;;;12.80;99.90;;;;;;6255219;22;20438;-76
2021/07/21 04:58:22;;;;;;;12.20;7.40;;;12.90;99.90;;;;;;6251827;22;20365;-76
2021/07/21 05:01:03;;;;;;;10.27;8.30;;;13.00;99.90;;;;;;6314752;22;20007;-76
2021/07/21 05:03:33;;;;;;;22.73;10.13;;;13.20;99.90;;;;;;6282169;22;20362;-76
2021/07/21 05:06:02;;;;;;;11.05;7.50;;;13.30;99.90;;;;;;6288000;22;20461;-76
2021/07/21 05:08:39;;;;;;;18.30;9.70;;;13.40;99.90;;;;;;6277385;22;20019;-76
2021/07/21 05:11:36;;;;;;;11.32;7.07;;;13.60;99.90;;;;;;6281920;22;20030;-77
2021/07/21 05:14:08;;;;;;;26.60;11.70;;;13.70;99.90;;;;;;6288333;22;20377;-77
2021/07/21 05:16:55;;;;;;;;;;;13.90;99.90;;;;;;6289440;22;20030;-77
2021/07/21 05:19:23;;;;;;;17.90;9.75;;;14.10;99.90;;;;;;6310461;22;19915;-77
2021/07/21 05:21:53;;;;;;;15.70;10.85;;;14.10;99.90;;;;;;6314839;22;20007;-83
2021/07/21 05:24:21;;;;;;;23.08;11.00;;;14.20;99.90;;;;;;6251516;22;20015;-82
2021/07/21 05:26:49;;;;;;;18.90;10.35;;;14.30;99.90;;;;;;6276071;22;20066;-82
2021/07/21 05:29:23;;;;;;;14.88;9.07;;;14.30;99.90;;;;;;6287469;22;20015;-81
2021/07/21 05:32:00;;;;;;;15.80;9.55;;;14.50;99.90;;;;;;6305589;22;20664;-81
2021/07/21 05:34:28;;;;;;;20.98;12.57;;;14.70;99.90;;;;;;6312676;22;20018;-81
2021/07/21 05:37:16;;;;;;;16.80;11.73;;;14.80;99.90;;;;;;6288101;22;20011;-82
2021/07/21 05:39:57;;;;;;;17.10;10.75;;;15.10;99.90;;;;;;6276505;22;20056;-82
2021/07/21 05:42:47;;;;;;;17.75;11.68;;;15.20;99.90;;;;;;6302881;22;20011;-81
2021/07/21 05:45:16;;;;;;;19.73;12.80;;;15.40;99.90;;;;;;6286606;22;20039;-82
2021/07/21 05:47:44;;;;;;;27.77;11.23;;;15.60;99.90;;;;;;6280372;22;20019;-82
2021/07/21 05:50:12;;;;;;;19.33;10.88;;;15.70;99.90;;;;;;6314027;22;20330;-81
2021/07/21 05:52:57;;;;;;;17.38;11.13;;;15.60;99.90;;;;;;6314679;22;20038;-82
2021/07/21 05:55:39;;;;;;;17.08;10.52;;;15.60;99.90;;;;;;6280313;22;20505;-82
2021/07/21 05:58:10;;;;;;;15.85;11.82;;;15.50;99.90;;;;;;6287715;22;20008;-82
2021/07/21 06:00:41;;;;;;;16.13;10.45;;;15.70;99.90;;;;;;6250105;22;20024;-82
2021/07/21 06:03:18;;;;;;;18.55;12.65;;;15.70;99.90;;;;;;6282487;22;20447;-82
2021/07/21 06:06:07;;;;;;;16.77;9.95;;;15.70;99.90;;;;;;6306674;22;20019;-82
2021/07/21 06:08:53;;;;;;;18.15;11.15;;;15.80;99.90;;;;;;6286990;22;20031;-82
2021/07/21 06:11:24;;;;;;;25.60;13.13;;;15.90;99.90;;;;;;6308619;22;20015;-82
2021/07/21 06:13:56;;;;;;;18.55;13.70;;;16.10;99.90;;;;;;6287241;22;20007;-82
2021/07/21 06:16:25;;;;;;;19.90;12.15;;;16.30;99.90;;;;;;6276562;22;20028;-82
2021/07/21 06:18:54;;;;;;;15.70;11.50;;;16.40;99.90;;;;;;6276640;22;20019;-82
2021/07/21 06:21:22;;;;;;;17.88;10.55;;;16.50;99.90;;;;;;6314703;22;20011;-82
2021/07/21 06:24:10;;;;;;;15.95;10.32;;;16.60;99.90;;;;;;6304643;22;20027;-82
2021/07/21 06:26:38;;;;;;;18.52;12.75;;;16.80;99.90;;;;;;6284617;22;20046;-81
2021/07/21 06:29:33;;;;;;;17.05;12.68;;;16.80;99.90;;;;;;6286920;22;20446;-82
2021/07/21 06:32:00;;;;;;;26.40;13.52;;;16.80;99.90;;;;;;6305456;22;20486;-81
2021/07/21 06:34:29;;;;;;;27.33;12.35;;;17.00;99.90;;;;;;6285493;22;20011;-82
2021/07/21 06:37:08;;;;;;;25.17;14.38;;;17.10;99.90;;;;;;6278877;22;20038;-81
2021/07/21 06:39:37;;;;;;;20.52;11.60;;;17.10;99.90;;;;;;6309925;22;20450;-81
2021/07/21 06:42:05;;;;;;;22.85;14.00;;;17.30;99.90;;;;;;6316361;22;20015;-81
2021/07/21 06:44:34;;;;;;;21.50;12.13;;;17.40;99.90;;;;;;6277846;22;20023;-81
2021/07/21 06:47:28;;;;;;;23.27;14.43;;;17.60;99.90;;;;;;6272382;22;20034;-82
2021/07/21 06:50:07;;;;;;;27.55;13.23;;;17.70;99.90;;;;;;6265897;22;20011;-82
2021/07/21 06:52:35;;;;;;;23.15;12.48;;;17.70;99.90;;;;;;6305424;22;20023;-81
2021/07/21 06:55:06;;;;;;;18.08;11.48;;;17.70;99.90;;;;;;6284414;22;20030;-81
2021/07/21 06:58:02;;;;;;;20.98;11.68;;;17.80;99.90;;;;;;6302001;22;20022;-81
2021/07/21 07:00:49;;;;;;;18.65;12.23;;;18.10;99.90;;;;;;6261663;22;20026;-81
2021/07/21 07:03:23;;;;;;;22.00;13.43;;;18.40;99.90;;;;;;6278064;22;20023;-81
2021/07/21 07:06:10;;;;;;;21.75;11.73;;;18.60;99.90;;;;;;6316359;22;20446;-82
2021/07/21 07:08:56;;;;;;;27.27;13.98;;;18.60;99.90;;;;;;6266437;22;20026;-82
2021/07/21 07:11:42;;;;;;;18.48;11.40;;;18.80;99.90;;;;;;6308534;22;20023;-82
2021/07/21 07:14:10;;;;;;;23.27;14.52;;;19.00;99.90;;;;;;6315805;22;20354;-82
2021/07/21 07:16:38;;;;;;;24.40;10.70;;;19.20;99.90;;;;;;6304262;22;20019;-81
2021/07/21 07:19:06;;;;;;;21.15;10.45;;;19.40;99.90;;;;;;6311894;22;20022;-81
2021/07/21 07:21:34;;;;;;;12.27;7.85;;;19.50;99.90;;;;;;6316388;22;20011;-81
2021/07/21 07:24:02;;;;;;;14.43;10.15;;;19.60;99.90;;;;;;6307374;22;20477;-82
2021/07/21 07:26:30;;;;;;;23.75;10.80;;;19.60;99.90;;;;;;6286932;22;20449;-78
2021/07/21 07:28:58;;;;;;;19.23;10.38;;;20.20;99.90;;;;;;6288175;22;20011;-78
2021/07/21 07:31:26;;;;;;;11.63;9.00;;;21.10;99.90;;;;;;6308877;22;20027;-82
2021/07/21 07:33:53;;;;;;;11.18;8.13;;;21.70;99.90;;;;;;6316102;22;20016;-78
2021/07/21 07:36:21;;;;;;;17.13;9.55;;;21.60;99.90;;;;;;6306280;22;20019;-78
2021/07/21 07:38:50;;;;;;;17.10;10.48;;;22.30;99.90;;;;;;6284931;22;20700;-78
2021/07/21 07:41:20;;;;;;;11.20;8.52;;;22.30;99.90;;;;;;6288381;22;20326;-79
2021/07/21 07:43:49;;;;;;;18.73;9.50;;;22.20;99.90;;;;;;6308604;22;20023;-84
2021/07/21 07:46:18;;;;;;;15.18;8.45;;;22.30;99.90;;;;;;6314379;22;20022;-84
2021/07/21 07:48:46;;;;;;;10.73;7.32;;;22.10;99.90;;;;;;6251660;22;20023;-83
2021/07/21 07:51:14;;;;;;;12.90;8.70;;;21.80;99.90;;;;;;6310721;22;20528;-83
2021/07/21 07:53:42;;;;;;;14.60;9.32;;;21.60;99.90;;;;;;6315596;22;20307;-83
2021/07/21 07:56:10;;;;;;;16.15;7.88;;;21.50;99.90;;;;;;6306726;22;20019;-83
2021/07/21 07:58:38;;;;;;;11.07;6.82;;;21.50;99.90;;;;;;6313445;22;20062;-78
2021/07/21 08:01:07;;;;;;;9.48;6.10;;;21.60;99.90;;;;;;6310354;22;20015;-79
2021/07/21 08:03:35;;;;;;;9.02;6.32;;;21.70;99.90;;;;;;6308686;22;20031;-78
2021/07/21 08:06:03;;;;;;;9.57;6.57;;;21.60;99.90;;;;;;6315855;22;20018;-78
2021/07/21 08:08:32;;;;;;;18.15;7.05;;;21.30;99.90;;;;;;6304354;22;20045;-78
2021/07/21 08:11:02;;;;;;;8.95;6.68;;;21.30;99.90;;;;;;6311145;22;20019;-83
2021/07/21 08:13:31;;;;;;;12.07;7.03;;;21.30;99.90;;;;;;6315864;22;20036;-82
2021/07/21 08:15:59;;;;;;;10.73;7.07;;;21.30;99.90;;;;;;6306570;22;20528;-78
2021/07/21 08:18:27;;;;;;;9.60;7.85;;;21.30;99.90;;;;;;6301790;22;20030;-78
2021/07/21 08:20:57;;;;;;;17.45;7.32;;;21.30;99.90;;;;;;6314760;22;20020;-78
2021/07/21 08:23:24;;;;;;;12.77;8.82;;;21.30;99.90;;;;;;6309928;22;20031;-78
2021/07/21 08:25:52;;;;;;;14.57;7.07;;;21.30;99.90;;;;;;6314694;22;20027;-77
2021/07/21 08:28:21;;;;;;;10.82;6.78;;;21.40;99.90;;;;;;6305812;22;20031;-78
2021/07/21 08:30:49;;;;;;;10.40;7.50;;;21.40;99.90;;;;;;6283426;22;20472;-78
2021/07/21 08:33:17;;;;;;;9.82;6.72;;;21.40;99.90;;;;;;6315332;22;20023;-78
2021/07/21 08:35:45;;;;;;;11.00;8.05;;;21.40;99.90;;;;;;6307333;22;20594;-83
2021/07/21 08:38:13;;;;;;;7.53;5.82;;;21.40;99.90;;;;;;6314565;22;20058;-83
2021/07/21 08:40:48;;;;;;;12.98;7.57;;;21.50;99.90;;;;;;6289133;22;20012;-85
2021/07/21 08:43:26;;;;;;;17.65;7.50;;;21.60;99.90;;;;;;6275766;22;20023;-84
2021/07/21 08:45:55;;;;;;;19.77;8.50;;;21.70;99.90;;;;;;6275505;22;20026;-83
2021/07/21 08:48:23;;;;;;;14.75;9.50;;;21.60;99.90;;;;;;6304969;22;20015;-84
2021/07/21 08:50:51;;;;;;;11.73;6.82;;;21.50;99.90;;;;;;6282325;22;20023;-83
2021/07/21 08:53:19;;;;;;;16.75;7.90;;;21.40;99.90;;;;;;6286145;22;20329;-83
2021/07/21 08:55:50;;;;;;;14.80;8.38;;;21.50;99.90;;;;;;6250532;22;20484;-84
2021/07/21 08:58:20;;;;;;;8.27;6.93;;;21.50;99.90;;;;;;6314001;22;20480;-83
2021/07/21 09:00:53;;;;;;;12.70;8.38;;;21.60;99.90;;;;;;6313643;22;20031;-84
2021/07/21 09:03:22;;;;;;;11.57;7.38;;;21.60;99.90;;;;;;6275642;22;20023;-83
2021/07/21 09:05:51;;;;;;;16.50;7.80;;;21.70;99.90;;;;;;6314911;22;20018;-84
2021/07/21 09:08:20;;;;;;;12.93;7.60;;;21.80;99.90;;;;;;6277859;22;20030;-82
2021/07/21 09:10:48;;;;;;;10.40;6.75;;;21.80;99.90;;;;;;6311018;22;20015;-83
2021/07/21 09:13:17;;;;;;;9.38;6.47;;;21.70;99.90;;;;;;6226585;22;20020;-82
2021/07/21 09:15:48;;;;;;;11.90;6.82;;;21.60;99.90;;;;;;6250226;22;20015;-83
2021/07/21 09:18:17;;;;;;;10.18;7.43;;;21.50;99.90;;;;;;6286969;22;20012;-83
2021/07/21 09:21:08;;;;;;;11.88;7.38;;;21.70;99.90;;;;;;6314276;22;20011;-83
2021/07/21 09:23:39;;;;;;;12.68;7.70;;;21.70;99.90;;;;;;6308638;22;20062;-82
2021/07/21 09:26:09;;;;;;;16.02;7.68;;;21.60;99.90;;;;;;6314891;22;20022;-83
2021/07/21 09:28:43;;;;;;;16.20;8.27;;;21.30;99.90;;;;;;6276444;22;20023;-78
2021/07/21 09:31:35;;;;;;;9.23;6.28;;;21.30;99.90;;;;;;6309538;22;20441;-78
2021/07/21 09:34:20;;;;;;;13.65;6.75;;;21.60;99.90;;;;;;6276405;22;20023;-77
2021/07/21 09:36:59;;;;;;;9.57;7.00;;;21.80;99.90;;;;;;6285815;22;20334;-77
2021/07/21 09:39:36;;;;;;;18.42;7.38;;;22.00;99.90;;;;;;6308927;22;20042;-78
2021/07/21 09:42:06;;;;;;;21.40;8.05;;;22.10;99.90;;;;;;6286884;22;20011;-78
2021/07/21 09:44:42;;;;;;;13.35;6.88;;;22.20;99.90;;;;;;6303589;22;20524;-78
2021/07/21 09:47:17;;;;;;;12.20;7.50;;;22.00;99.90;;;;;;6309501;22;20337;-81
2021/07/21 09:49:46;;;;;;;19.40;8.20;;;21.90;99.90;;;;;;6314952;22;20326;-78
2021/07/21 09:52:20;;;;;;;9.02;6.05;;;21.80;99.90;;;;;;6250005;22;20019;-79
2021/07/21 09:55:13;;;;;;;11.80;8.05;;;21.80;99.90;;;;;;6283606;22;20027;-78
2021/07/21 09:57:42;;;;;;;12.00;6.93;;;22.00;99.90;;;;;;6313989;22;20425;-78
2021/07/21 10:00:21;;;;;;;13.88;7.78;;;22.10;99.90;;;;;;6304511;22;20027;-77
2021/07/21 10:02:50;;;;;;;11.73;7.40;;;22.10;99.90;;;;;;6282519;22;20026;-78
2021/07/21 10:05:18;;;;;;;13.90;7.85;;;21.80;99.90;;;;;;6314243;22;20011;-78
2021/07/21 10:10:20;;;;;;;10.60;7.65;;;21.90;99.90;;;;;;6315068;22;20008;-78
2021/07/21 10:12:59;;;;;;;10.50;6.97;;;22.10;99.90;;;;;;6316770;22;20019;-78
2021/07/21 10:15:29;;;;;;;12.85;11.13;;;22.30;99.90;;;;;;6304237;22;20027;-78
2021/07/21 10:18:11;;;;;;;9.23;6.15;;;22.10;99.90;;;;;;6316787;22;20023;-78
2021/07/21 10:20:41;;;;;;;12.95;9.13;;;22.00;99.90;;;;;;6304906;22;20030;-78
2021/07/21 10:23:12;;;;;;;12.77;7.97;;;21.90;99.90;;;;;;6311949;22;20034;-77
2021/07/21 10:25:40;;;;;;;13.35;8.57;;;21.80;99.90;;;;;;6316608;22;20011;-84
2021/07/21 10:28:09;;;;;;;14.93;7.78;;;21.80;99.90;;;;;;6307542;22;20433;-83
2021/07/21 10:30:40;;;;;;;13.63;8.05;;;22.10;99.90;;;;;;6313422;22;20034;-83
2021/07/21 10:33:10;;;;;;;12.50;8.63;;;22.30;99.90;;;;;;6289716;22;20031;-85
2021/07/21 10:35:38;;;;;;;10.80;8.48;;;22.30;99.90;;;;;;6309633;22;20027;-83
2021/07/21 10:38:07;;;;;;;18.70;7.68;;;22.40;99.90;;;;;;6288610;22;20012;-83
2021/07/21 10:40:36;;;;;;;10.25;7.32;;;22.30;99.90;;;;;;6249914;22;20026;-84
2021/07/21 10:43:04;;;;;;;12.20;7.90;;;22.40;99.90;;;;;;6275519;22;20022;-83
2021/07/21 10:45:34;;;;;;;11.20;8.32;;;22.60;99.90;;;;;;6315155;22;20026;-83
2021/07/21 10:48:23;;;;;;;13.30;9.52;;;22.70;99.90;;;;;;6308131;22;20031;-84
2021/07/21 10:59:17;;;;;;;11.40;7.22;;;22.80;99.90;;;;;;6311416;22;20480;-84
2021/07/21 11:02:06;;;;;;;12.18;8.20;;;22.80;99.90;;;;;;6315601;22;20346;-85
2021/07/21 11:04:45;;;;;;;15.70;8.45;;;22.80;99.90;;;;;;6305416;22;20342;-83
2021/07/21 11:07:16;;;;;;;11.75;8.15;;;22.70;99.90;;;;;;6311426;22;20350;-84
2021/07/21 11:09:48;;;;;;;;;;;22.50;99.90;;;;;;6316409;22;20011;-85
2021/07/21 11:12:34;;;;;;;17.25;6.55;;;22.60;99.90;;;;;;6276752;22;19926;-83
2021/07/21 11:15:02;;;;;;;11.57;8.25;;;22.80;99.90;;;;;;6311355;22;20023;-84
2021/07/21 11:17:30;;;;;;;10.73;6.93;;;22.70;99.90;;;;;;6316152;22;20022;-84
2021/07/21 11:19:57;;;;;;;10.85;8.13;;;22.70;99.90;;;;;;6306960;22;20027;-83
2021/07/21 11:22:28;;;;;;;12.43;6.82;;;22.70;99.90;;;;;;6314171;22;20015;-83
2021/07/21 11:25:00;;;;;;;13.75;6.97;;;22.70;99.90;;;;;;6316273;22;20323;-81
2021/07/21 11:27:49;;;;;;;;;;;22.60;99.90;;;;;;6310712;22;20019;-81
2021/07/21 11:30:50;;;;;;;12.18;7.90;;;22.60;99.90;;;;;;6314246;22;19919;-75
2021/07/21 11:33:41;;;;;;;13.15;8.38;;;22.40;99.90;;;;;;6316271;22;20016;-74
2021/07/21 11:36:32;;;;;;;11.82;6.97;;;22.50;99.90;;;;;;6306506;22;20053;-74
2021/07/21 11:39:00;;;;;;;11.68;8.18;;;22.50;99.90;;;;;;6278357;22;20023;-74
2021/07/21 11:41:53;;;;;;;8.45;6.30;;;22.70;98.50;;;;;;6316053;22;20007;-75
2021/07/21 11:44:27;;;;;;;13.32;7.85;;;22.80;99.90;;;;;;6305813;22;20350;-74
2021/07/21 11:46:56;;;;;;;9.82;7.00;;;22.90;99.30;;;;;;6312010;22;20019;-74
2021/07/21 11:49:26;;;;;;;10.63;7.80;;;22.70;98.90;;;;;;6315660;22;20034;-74
2021/07/21 11:51:57;;;;;;;11.52;7.63;;;22.70;99.90;;;;;;6308223;22;20023;-74
2021/07/21 11:54:30;;;;;;;16.10;5.97;;;22.80;97.90;;;;;;6314196;22;20022;-75
2021/07/21 11:57:00;;;;;;;11.73;7.75;;;22.90;99.90;;;;;;6315879;22;20007;-75
2021/07/21 11:59:38;;;;;;;11.15;7.97;;;22.90;97.90;;;;;;6309455;22;20023;-74
2021/07/21 12:02:20;;;;;;;12.65;6.75;;;22.90;99.90;;;;;;6315311;22;20007;-75
2021/07/21 12:04:50;;;;;;;8.98;6.13;;;22.90;97.80;;;;;;6286564;22;20794;-76
2021/07/21 12:07:20;;;;;;;12.55;8.07;;;22.90;99.10;;;;;;6283245;22;20338;-74
2021/07/21 12:09:51;;;;;;;13.93;7.70;;;22.90;99.90;;;;;;6288154;22;20022;-74
2021/07/21 12:12:26;;;;;;;8.50;5.90;;;23.00;98.50;;;;;;6305577;22;20019;-74
2021/07/21 12:14:56;;;;;;;12.23;6.88;;;22.90;99.90;;;;;;6311290;22;20026;-75
2021/07/21 12:17:25;;;;;;;20.00;9.00;;;22.90;99.60;;;;;;6315901;22;20018;-74
2021/07/21 12:20:02;;;;;;;10.93;7.05;;;22.90;98.80;;;;;;6307401;22;20019;-75
2021/07/21 12:22:32;;;;;;;11.60;7.30;;;23.00;99.10;;;;;;6313338;22;20021;-76
2021/07/21 12:25:04;;;;;;;14.60;7.80;;;23.10;99.90;;;;;;6315458;22;20334;-74
2021/07/21 12:27:34;;;;;;;8.38;6.72;;;23.10;98.70;;;;;;6309283;22;20027;-75
2021/07/21 12:30:08;;;;;;;10.13;6.47;;;23.20;99.90;;;;;;6314360;22;20011;-75
2021/07/21 12:32:36;;;;;;;10.82;6.75;;;23.40;99.30;;;;;;6304125;22;20490;-76
2021/07/21 12:35:06;;;;;;;14.00;7.57;;;23.30;98.70;;;;;;6275798;22;20027;-75
2021/07/21 12:37:43;;;;;;;10.80;5.90;;;23.20;97.30;;;;;;6262762;22;20011;-75
2021/07/21 12:40:14;;;;;;;14.18;7.53;;;23.20;98.40;;;;;;6305901;22;20023;-75
2021/07/21 12:42:42;;;;;;;;;;;23.30;99.90;;;;;;6276122;22;20015;-75
2021/07/21 12:45:13;;;;;;;12.93;7.32;;;23.30;98.70;;;;;;6314070;22;19919;-75
2021/07/21 12:47:46;;;;;;;8.48;6.80;;;23.30;98.60;;;;;;6306521;22;20548;-75
2021/07/21 12:50:29;;;;;;;12.60;7.00;;;23.20;96.90;;;;;;6312466;22;20018;-77
2021/07/21 12:53:20;;;;;;;18.45;7.50;;;23.30;99.90;;;;;;6303178;22;20007;-77
2021/07/21 12:55:50;;;;;;;13.20;6.73;;;23.40;99.90;;;;;;6305798;22;20428;-76
2021/07/21 12:58:22;;;;;;;11.02;6.97;;;23.40;99.20;;;;;;6312376;22;20011;-76
2021/07/21 13:00:57;;;;;;;12.40;7.53;;;23.40;99.10;;;;;;6310278;22;20019;-77
2021/07/21 13:03:25;;;;;;;9.90;8.18;;;23.30;99.90;;;;;;6307529;22;20027;-78
2021/07/21 13:05:56;;;;;;;9.77;6.28;;;23.20;99.80;;;;;;6312869;22;20022;-77
2021/07/21 13:08:34;;;;;;;7.38;5.38;;;23.20;99.90;;;;;;6302908;22;20023;-77
2021/07/21 13:11:10;;;;;;;12.65;8.77;;;23.00;98.50;;;;;;6308202;22;20323;-75
2021/07/21 13:13:41;;;;;;;11.73;7.75;;;22.90;98.90;;;;;;6287785;22;20011;-75
2021/07/21 13:16:10;;;;;;;;;;;23.00;99.90;;;;;;6278409;22;20027;-76
2021/07/21 13:18:44;;;;;;;11.25;6.57;;;23.20;99.90;;;;;;6285396;22;20349;-75
2021/07/21 13:21:22;;;;;;;20.23;6.95;;;23.40;97.50;;;;;;6314536;22;20014;-76
2021/07/21 13:23:58;;;;;;;10.30;6.03;;;23.40;96.80;;;;;;6307302;22;20015;-79
2021/07/21 13:26:27;;;;;;;8.35;5.43;;;23.50;97.10;;;;;;6275401;22;20084;-79
2021/07/21 13:28:57;;;;;;;12.98;6.57;;;23.50;99.50;;;;;;6314886;22;20011;-81